Vlieland Island, Netherlands
Current Conditions -  °F | °C
As of 7:25 PM on Friday 31 Oct 2014 (Local Time) from EHVL Reporting Station
Haze Haze  
Wind Chill: 55°   Ceiling: Unl
Heat Index: 55°   Visibility: 4mi
Dew Point: 54°   Wind: 12mph
Humidity: 94%   Direction: 170°S
Pressure: 30.09"   Gusts: NA
Location:  53.25°N, 4.92°E
Report Text: EHVL 311825Z AUTO 17010KT 6000 BR NCD 13/12 Q1019 WHT
Loading
Personal Weather Stations






























Interactive Weather Map
Tropical Storm Tracking
New forecast layout! Learn more

10-Day Weather Forecast

Advertisements
Track Severe Weather on mobile